createdAt,value
2023-11-30T00:05:08.428Z,3.7
2023-11-30T00:10:00.938Z,4.4
2023-11-30T00:15:00.887Z,3.4
2023-11-30T00:20:08.590Z,3.0
2023-11-30T00:30:00.661Z,3.5
2023-11-30T00:35:08.266Z,2.6
2023-11-30T00:40:00.587Z,3.2
2023-11-30T00:45:00.677Z,2.9
2023-11-30T00:50:08.072Z,2.0
2023-11-30T00:55:00.638Z,2.8
2023-11-30T01:00:00.636Z,3.0
2023-11-30T01:05:08.298Z,2.1
2023-11-30T01:10:00.638Z,3.3
2023-11-30T01:15:04.314Z,2.9
2023-11-30T01:20:09.724Z,3.3
2023-11-30T01:25:01.183Z,3.3
2023-11-30T01:30:01.039Z,3.2
2023-11-30T01:35:08.242Z,3.0
2023-11-30T01:40:00.916Z,3.9
2023-11-30T01:45:00.905Z,3.5
2023-11-30T01:50:08.297Z,2.5
2023-11-30T01:55:02.275Z,3.3
2023-11-30T02:00:00.674Z,2.3
2023-11-30T02:05:08.075Z,2.3
2023-11-30T02:10:00.859Z,3.2
2023-11-30T02:15:01.019Z,2.2
2023-11-30T02:20:08.298Z,3.0
2023-11-30T02:25:00.603Z,3.3
2023-11-30T02:30:00.952Z,2.7
2023-11-30T02:35:08.377Z,2.8
2023-11-30T02:40:00.838Z,3.4
2023-11-30T02:45:00.755Z,3.1
2023-11-30T02:50:08.609Z,2.6
2023-11-30T02:55:00.596Z,2.6
2023-11-30T03:00:00.839Z,3.2
2023-11-30T03:05:08.164Z,2.7
2023-11-30T03:10:00.776Z,4.1
2023-11-30T03:15:00.695Z,3.3
2023-11-30T03:20:08.625Z,3.5
2023-11-30T03:25:00.625Z,2.2
2023-11-30T03:30:00.688Z,2.4
2023-11-30T03:35:08.344Z,3.2
2023-11-30T03:50:08.303Z,3.8
2023-11-30T03:55:00.629Z,3.6
2023-11-30T04:00:00.686Z,3.2
2023-11-30T04:05:09.999Z,4.1
2023-11-30T04:10:00.740Z,3.9
2023-11-30T04:15:00.679Z,4.5
2023-11-30T04:20:08.623Z,3.7
2023-11-30T04:25:00.629Z,4.3
2023-11-30T04:30:00.960Z,4.1
2023-11-30T04:35:08.196Z,3.7
2023-11-30T04:40:00.922Z,3.1
2023-11-30T04:45:00.642Z,4.6
2023-11-30T04:50:08.260Z,5.2
2023-11-30T04:55:00.852Z,5.0
2023-11-30T05:00:00.792Z,5.8
2023-11-30T05:05:08.244Z,5.2
2023-11-30T05:10:00.627Z,6.0
2023-11-30T05:15:00.662Z,4.8
2023-11-30T05:20:08.857Z,4.7
2023-11-30T05:25:00.826Z,6.7
2023-11-30T05:30:00.690Z,6.1
2023-11-30T05:35:08.199Z,5.1
2023-11-30T05:40:00.728Z,6.1
2023-11-30T05:45:01.024Z,6.5
2023-11-30T05:50:08.477Z,8.2
2023-11-30T05:55:00.776Z,7.0
2023-11-30T06:00:00.712Z,6.2
2023-11-30T06:05:08.346Z,7.1
2023-11-30T06:10:00.696Z,6.1
2023-11-30T06:15:00.748Z,7.1
2023-11-30T06:20:10.058Z,6.7
2023-11-30T06:25:00.650Z,7.6
2023-11-30T06:30:00.678Z,6.2
2023-11-30T06:35:08.185Z,8.3
2023-11-30T06:40:00.850Z,9.3
2023-11-30T06:45:00.802Z,8.3
2023-11-30T06:50:08.599Z,9.3
2023-11-30T06:55:00.623Z,8.4
2023-11-30T07:00:01.008Z,8.2
2023-11-30T07:05:08.071Z,7.7
2023-11-30T07:10:00.989Z,8.4
2023-11-30T07:15:01.054Z,9.1
2023-11-30T07:20:08.472Z,8.2
2023-11-30T07:25:00.698Z,6.5
2023-11-30T07:30:00.726Z,8.0
2023-11-30T07:35:08.387Z,7.1
2023-11-30T07:40:00.945Z,9.4
2023-11-30T07:45:01.538Z,9.1
2023-11-30T07:50:08.272Z,7.1
2023-11-30T07:55:01.267Z,5.5
2023-11-30T08:00:00.977Z,7.4
2023-11-30T08:10:08.213Z,7.6
2023-11-30T08:15:00.797Z,5.5
2023-11-30T08:20:00.671Z,5.9
2023-11-30T08:30:08.776Z,7.9
2023-11-30T08:35:00.583Z,5.9
2023-11-30T08:40:00.588Z,6.6
2023-11-30T08:55:08.088Z,7.3
2023-11-30T09:00:01.007Z,7.5
2023-11-30T09:05:00.619Z,7.1
2023-11-30T09:10:08.510Z,7.8
2023-11-30T09:15:00.686Z,6.9
2023-11-30T09:20:00.620Z,7.0
2023-11-30T09:25:08.333Z,8.4
2023-11-30T09:30:00.812Z,8.2
2023-11-30T09:35:00.611Z,9.9
2023-11-30T09:40:08.790Z,8.4
2023-11-30T09:45:02.364Z,9.0
2023-11-30T09:50:00.815Z,6.3
2023-11-30T09:55:08.497Z,10.0
2023-11-30T10:05:00.656Z,5.0
2023-11-30T10:10:08.245Z,4.5
2023-11-30T10:15:01.249Z,4.9
2023-11-30T10:20:00.645Z,5.0
2023-11-30T10:30:09.457Z,3.6
2023-11-30T10:35:04.879Z,4.2
2023-11-30T10:40:08.009Z,3.9
2023-11-30T10:45:08.469Z,3.5
2023-11-30T10:50:01.385Z,3.7
2023-11-30T10:55:07.431Z,3.7
2023-11-30T11:00:10.717Z,3.0
2023-11-30T11:05:00.708Z,4.2
2023-11-30T11:10:03.472Z,3.8
2023-11-30T11:20:08.349Z,3.0
2023-11-30T11:25:00.679Z,3.1
2023-11-30T11:30:04.107Z,2.6
2023-11-30T11:35:08.877Z,3.0
2023-11-30T11:40:01.082Z,2.9
2023-11-30T11:45:01.516Z,3.8
2023-11-30T11:50:08.590Z,3.2
2023-11-30T11:55:02.378Z,3.3
2023-11-30T12:00:00.663Z,4.1
2023-11-30T12:05:09.031Z,3.3
2023-11-30T12:10:11.937Z,3.6
2023-11-30T12:15:00.954Z,2.8
2023-11-30T12:20:08.541Z,3.3
2023-11-30T12:25:00.649Z,3.6
2023-11-30T12:35:08.656Z,3.0
2023-11-30T12:40:00.735Z,4.7
2023-11-30T12:45:00.921Z,5.1
2023-11-30T12:50:08.729Z,4.4
2023-11-30T12:55:00.893Z,3.0
2023-11-30T13:00:01.037Z,3.5
2023-11-30T13:05:08.080Z,2.8
2023-11-30T13:10:00.710Z,4.3
2023-11-30T13:15:00.666Z,3.2
2023-11-30T13:20:09.224Z,4.3
2023-11-30T13:25:00.907Z,4.0
2023-11-30T13:30:00.657Z,3.7
2023-11-30T13:35:08.230Z,3.0
2023-11-30T13:40:00.768Z,3.7
2023-11-30T13:45:00.689Z,4.4
2023-11-30T14:00:08.550Z,4.9
2023-11-30T14:05:00.655Z,6.5
2023-11-30T14:10:00.999Z,4.4
2023-11-30T14:15:08.594Z,3.7
2023-11-30T14:20:00.894Z,4.2
2023-11-30T14:25:01.489Z,4.6
2023-11-30T14:30:08.425Z,5.5
2023-11-30T14:35:00.677Z,4.7
2023-11-30T14:40:00.948Z,4.4
2023-11-30T14:45:11.485Z,4.4
2023-11-30T14:50:00.640Z,5.2
2023-11-30T14:55:00.710Z,5.3
2023-11-30T15:00:08.513Z,4.6
2023-11-30T15:05:00.661Z,5.2
2023-11-30T15:10:00.858Z,4.7
2023-11-30T15:25:08.908Z,4.8
2023-11-30T15:30:00.664Z,4.7
2023-11-30T15:35:00.881Z,3.9
2023-11-30T15:40:08.278Z,3.5
2023-11-30T15:45:00.631Z,5.3
2023-11-30T15:50:00.870Z,4.1
2023-11-30T15:55:08.901Z,5.2
2023-11-30T16:00:00.624Z,4.6
2023-11-30T16:05:00.859Z,6.4
2023-11-30T16:15:08.896Z,4.8
2023-11-30T16:20:00.639Z,6.3
2023-11-30T16:25:00.778Z,4.7
2023-11-30T16:35:08.259Z,4.6
2023-11-30T16:40:01.234Z,5.3
2023-11-30T16:45:00.680Z,5.7
2023-11-30T16:50:08.426Z,5.2
2023-11-30T16:55:00.758Z,4.7
2023-11-30T17:00:00.796Z,5.1
2023-11-30T17:05:08.272Z,4.5
2023-11-30T17:10:00.658Z,4.4
2023-11-30T17:15:00.676Z,5.7
2023-11-30T17:20:08.781Z,6.9
2023-11-30T17:30:00.960Z,3.9
2023-11-30T17:35:08.548Z,6.6
2023-11-30T17:40:00.668Z,5.4
2023-11-30T17:45:00.702Z,5.1
2023-11-30T17:50:09.030Z,5.5
2023-11-30T17:55:00.731Z,5.8
2023-11-30T18:00:00.692Z,5.2
2023-11-30T18:10:08.512Z,6.4
2023-11-30T18:15:00.664Z,6.2
2023-11-30T18:20:00.647Z,5.9
2023-11-30T18:25:08.100Z,5.0
2023-11-30T18:30:00.709Z,5.2
2023-11-30T18:35:00.685Z,5.8
2023-11-30T18:40:08.603Z,5.7
2023-11-30T18:45:00.758Z,4.6
2023-11-30T18:50:00.660Z,6.3
2023-11-30T18:55:08.301Z,5.6
2023-11-30T19:00:00.976Z,5.3
2023-11-30T19:05:00.783Z,6.0
2023-11-30T19:10:08.460Z,6.6
2023-11-30T19:15:00.711Z,6.5
2023-11-30T19:20:00.630Z,4.4
2023-11-30T19:25:08.292Z,5.3
2023-11-30T19:30:00.703Z,5.1
2023-11-30T19:35:00.754Z,6.9
2023-11-30T19:40:08.588Z,7.2
2023-11-30T19:45:00.766Z,6.5
2023-11-30T19:50:00.760Z,6.3
2023-11-30T19:55:09.550Z,6.4
2023-11-30T20:00:00.819Z,6.6
2023-11-30T20:05:00.863Z,6.8
2023-11-30T20:10:08.129Z,5.2
2023-11-30T20:15:00.681Z,5.6
2023-11-30T20:20:00.747Z,6.6
2023-11-30T20:25:08.462Z,5.2
2023-11-30T20:30:00.923Z,6.6
2023-11-30T20:35:00.681Z,6.3
2023-11-30T20:40:08.416Z,7.0
2023-11-30T20:45:00.931Z,5.4
2023-11-30T20:50:00.663Z,7.2
2023-11-30T20:55:08.326Z,5.3
2023-11-30T21:00:00.797Z,5.0
2023-11-30T21:05:00.627Z,5.8
2023-11-30T21:10:08.491Z,6.8
2023-11-30T21:15:00.650Z,4.6
2023-11-30T21:20:04.518Z,5.2
2023-11-30T21:25:08.358Z,5.0
2023-11-30T21:30:00.735Z,5.2
2023-11-30T21:35:00.637Z,6.8
2023-11-30T21:40:08.569Z,6.1
2023-11-30T21:45:01.832Z,5.3
2023-11-30T21:50:15.246Z,4.9
2023-11-30T21:55:00.743Z,4.5
2023-11-30T22:00:00.918Z,6.0
2023-11-30T22:05:08.217Z,6.1
2023-11-30T22:10:02.074Z,5.3
2023-11-30T22:15:16.188Z,4.7
2023-11-30T22:20:08.984Z,5.0
2023-11-30T22:25:00.679Z,4.1
2023-11-30T22:30:00.671Z,5.3
2023-11-30T22:35:08.134Z,4.4
2023-11-30T22:40:01.045Z,4.2
2023-11-30T22:45:00.755Z,4.4
2023-11-30T22:50:08.572Z,3.7
2023-11-30T22:55:00.812Z,3.3
2023-11-30T23:00:01.118Z,3.4
2023-11-30T23:05:08.305Z,4.7
2023-11-30T23:10:00.801Z,3.6
2023-11-30T23:15:00.673Z,5.1
2023-11-30T23:20:08.633Z,4.4
2023-11-30T23:25:01.026Z,4.4
2023-11-30T23:30:00.654Z,4.8
2023-11-30T23:35:08.260Z,4.4
2023-11-30T23:40:00.701Z,5.0
2023-11-30T23:45:02.900Z,5.0
2023-11-30T23:50:08.558Z,5.3
2023-11-30T23:55:01.230Z,4.8
